createdAt,value
2018-04-16T00:01:19.168Z,16.20
2018-04-16T00:03:50.540Z,16.20
2018-04-16T00:06:21.874Z,16.20
2018-04-16T00:08:53.284Z,16.10
2018-04-16T00:11:25.459Z,16.10
2018-04-16T00:13:57.032Z,16.10
2018-04-16T00:16:28.360Z,16.10
2018-04-16T00:19:00.235Z,16.00
2018-04-16T00:21:31.357Z,16.00
2018-04-16T00:24:03.264Z,16.00
2018-04-16T00:26:34.542Z,16.00
2018-04-16T00:29:05.321Z,16.00
2018-04-16T00:35:05.618Z,15.90
2018-04-16T00:37:42.321Z,15.90
2018-04-16T00:40:19.937Z,15.90
2018-04-16T00:42:56.783Z,15.90
2018-04-16T00:45:33.417Z,15.80
2018-04-16T00:48:10.100Z,15.80
2018-04-16T00:54:20.797Z,15.70
2018-04-16T00:56:57.527Z,15.70
2018-04-16T00:59:34.981Z,15.70
2018-04-16T01:02:11.615Z,15.70
2018-04-16T01:04:48.404Z,15.60
2018-04-16T01:07:25.136Z,15.60
2018-04-16T01:10:02.550Z,15.60
2018-04-16T01:12:39.919Z,15.60
2018-04-16T01:15:17.510Z,15.60
2018-04-16T01:17:54.931Z,15.60
2018-04-16T01:20:32.356Z,15.60
2018-04-16T01:23:09.782Z,15.60
2018-04-16T01:25:47.399Z,15.60
2018-04-16T01:28:24.861Z,15.60
2018-04-16T01:31:01.474Z,15.60
2018-04-16T01:33:39.040Z,15.60
2018-04-16T01:36:16.503Z,15.60
2018-04-16T01:38:53.379Z,15.60
2018-04-16T01:41:30.314Z,15.60
2018-04-16T01:44:07.412Z,15.60
2018-04-16T01:46:44.936Z,15.50
2018-04-16T01:49:21.526Z,15.50
2018-04-16T01:51:58.209Z,15.50
2018-04-16T01:54:36.599Z,15.40
2018-04-16T01:57:13.362Z,15.40
2018-04-16T01:59:50.290Z,15.40
2018-04-16T02:02:27.355Z,15.40
2018-04-16T02:05:04.241Z,15.40
2018-04-16T02:07:40.899Z,15.30
2018-04-16T02:10:17.574Z,15.30
2018-04-16T02:12:54.513Z,15.30
2018-04-16T02:15:31.343Z,15.30
2018-04-16T02:18:08.821Z,15.30
2018-04-16T02:20:45.470Z,15.20
2018-04-16T02:23:22.137Z,15.20
2018-04-16T02:25:59.094Z,15.20
2018-04-16T02:28:36.547Z,15.20
2018-04-16T02:31:13.239Z,15.10
2018-04-16T02:33:51.329Z,15.00
2018-04-16T02:36:28.168Z,15.10
2018-04-16T02:39:05.586Z,15.00
2018-04-16T02:44:49.482Z,15.00
2018-04-16T02:47:26.221Z,15.00
2018-04-16T02:50:03.373Z,15.00
2018-04-16T02:52:39.905Z,15.00
2018-04-16T02:58:36.682Z,14.90
2018-04-16T03:01:13.470Z,14.90
2018-04-16T03:03:50.016Z,14.90
2018-04-16T03:06:26.609Z,14.90
2018-04-16T03:09:03.401Z,14.90
2018-04-16T03:14:59.741Z,14.90
2018-04-16T03:17:35.794Z,14.90
2018-04-16T03:20:12.441Z,14.90
2018-04-16T03:22:49.139Z,14.90
2018-04-16T03:25:25.809Z,14.90
2018-04-16T03:28:03.432Z,14.90
2018-04-16T03:30:40.159Z,14.90
2018-04-16T03:33:16.884Z,14.90
2018-04-16T03:35:54.192Z,14.90
2018-04-16T03:38:31.590Z,14.90
2018-04-16T03:41:09.171Z,14.90
2018-04-16T03:43:46.494Z,14.90
2018-04-16T03:46:24.195Z,14.90
2018-04-16T03:49:00.855Z,14.90
2018-04-16T03:54:36.118Z,15.00
2018-04-16T03:57:08.204Z,15.00
2018-04-16T03:59:39.603Z,15.00
2018-04-16T04:02:11.741Z,15.10
2018-04-16T04:04:43.079Z,15.10
2018-04-16T04:07:14.437Z,15.10
2018-04-16T04:09:46.012Z,15.20
2018-04-16T04:12:17.359Z,15.20
2018-04-16T04:14:48.795Z,15.20
2018-04-16T04:17:19.938Z,15.20
2018-04-16T04:19:51.373Z,15.20
2018-04-16T04:22:33.833Z,15.20
2018-04-16T04:25:22.374Z,15.30
2018-04-16T04:28:10.817Z,15.30
2018-04-16T04:30:41.146Z,15.30
2018-04-16T04:33:13.346Z,15.30
2018-04-16T04:35:44.733Z,15.30
2018-04-16T04:38:16.059Z,15.30
2018-04-16T04:40:48.163Z,15.40
2018-04-16T04:43:19.676Z,15.40
2018-04-16T04:45:51.782Z,15.40
2018-04-16T04:48:23.153Z,15.40
2018-04-16T04:50:54.482Z,15.40
2018-04-16T04:53:25.879Z,15.40
2018-04-16T04:55:57.991Z,15.30
2018-04-16T04:58:29.397Z,15.40
2018-04-16T05:01:00.717Z,15.40
2018-04-16T05:03:31.847Z,15.50
2018-04-16T05:06:03.210Z,15.50
2018-04-16T05:08:34.597Z,15.50
2018-04-16T05:11:06.004Z,15.50
2018-04-16T05:13:37.438Z,15.50
2018-04-16T05:16:08.793Z,15.60
2018-04-16T05:18:40.100Z,15.60
2018-04-16T05:21:12.197Z,15.60
2018-04-16T05:23:43.604Z,15.60
2018-04-16T05:26:15.728Z,15.70
2018-04-16T05:28:47.246Z,15.70
2018-04-16T05:31:19.334Z,15.80
2018-04-16T05:33:50.704Z,15.80
2018-04-16T05:36:21.860Z,15.80
2018-04-16T05:38:54.222Z,15.80
2018-04-16T05:41:25.573Z,15.80
2018-04-16T05:43:57.213Z,15.90
2018-04-16T05:46:29.393Z,16.00
2018-04-16T05:49:01.153Z,16.00
2018-04-16T05:51:32.801Z,16.00
2018-04-16T05:54:03.831Z,16.10
2018-04-16T05:56:35.207Z,16.10
2018-04-16T05:59:06.561Z,16.10
2018-04-16T06:01:37.949Z,16.20
2018-04-16T06:04:10.249Z,16.20
2018-04-16T06:06:42.479Z,16.30
2018-04-16T06:09:14.608Z,16.30
2018-04-16T06:11:45.940Z,16.30
2018-04-16T06:14:17.310Z,16.30
2018-04-16T06:16:48.663Z,16.40
2018-04-16T06:19:20.889Z,16.50
2018-04-16T06:21:53.194Z,16.60
2018-04-16T06:24:24.621Z,16.50
2018-04-16T06:26:57.023Z,16.70
2018-04-16T06:29:28.397Z,16.60
2018-04-16T06:32:00.846Z,16.70
2018-04-16T06:34:32.233Z,16.70
2018-04-16T06:37:03.660Z,16.80
2018-04-16T06:39:35.940Z,16.90
2018-04-16T06:42:08.223Z,17.00
2018-04-16T06:44:39.589Z,17.00
2018-04-16T06:47:11.187Z,17.10
2018-04-16T06:49:42.675Z,17.10
2018-04-16T06:52:14.076Z,17.20
2018-04-16T06:54:45.449Z,17.30
2018-04-16T06:57:16.822Z,17.30
2018-04-16T06:59:48.156Z,17.30
2018-04-16T07:02:19.530Z,17.40
2018-04-16T07:04:51.025Z,17.40
2018-04-16T07:07:22.778Z,17.40
2018-04-16T07:09:54.323Z,17.50
2018-04-16T07:12:25.666Z,17.50
2018-04-16T07:14:57.115Z,17.60
2018-04-16T07:17:28.504Z,17.70
2018-04-16T07:20:00.709Z,17.80
2018-04-16T07:22:32.129Z,17.80
2018-04-16T07:25:03.496Z,17.90
2018-04-16T07:27:34.758Z,18.10
2018-04-16T07:30:05.758Z,18.10
2018-04-16T07:32:37.121Z,18.20
2018-04-16T07:35:08.609Z,18.30
2018-04-16T07:37:40.688Z,18.30
2018-04-16T07:40:12.845Z,18.40
2018-04-16T07:42:45.002Z,18.40
2018-04-16T07:45:16.372Z,18.40
2018-04-16T07:47:48.210Z,18.50
2018-04-16T07:50:19.604Z,18.60
2018-04-16T07:52:52.005Z,18.70
2018-04-16T07:55:23.362Z,18.70
2018-04-16T07:57:54.757Z,18.80
2018-04-16T08:00:26.196Z,18.90
2018-04-16T08:02:57.867Z,18.90
2018-04-16T08:05:29.277Z,19.00
2018-04-16T08:08:00.664Z,19.00
2018-04-16T08:10:31.969Z,19.00
2018-04-16T08:13:03.260Z,19.00
2018-04-16T08:15:34.634Z,19.10
2018-04-16T08:18:06.514Z,19.20
2018-04-16T08:20:38.769Z,19.20
2018-04-16T08:23:10.960Z,19.40
2018-04-16T08:25:42.306Z,19.30
2018-04-16T08:28:13.709Z,19.40
2018-04-16T08:30:44.899Z,19.50
2018-04-16T08:33:16.353Z,19.60
2018-04-16T08:35:47.882Z,19.70
2018-04-16T08:38:19.297Z,19.80
2018-04-16T08:40:50.866Z,19.90
2018-04-16T08:43:22.279Z,19.90
2018-04-16T08:45:53.625Z,19.90
2018-04-16T08:48:25.027Z,20.00
2018-04-16T08:50:56.410Z,20.10
2018-04-16T08:53:28.506Z,20.30
2018-04-16T08:56:00.112Z,20.30
2018-04-16T08:58:31.590Z,20.40
2018-04-16T09:01:03.014Z,20.50
2018-04-16T09:03:35.187Z,20.70
2018-04-16T09:06:07.314Z,20.80
2018-04-16T09:08:38.731Z,20.70
2018-04-16T09:11:11.006Z,20.80
2018-04-16T09:13:42.497Z,20.90
2018-04-16T09:16:14.455Z,21.00
2018-04-16T09:18:45.647Z,20.90
2018-04-16T09:21:17.816Z,21.10
2018-04-16T09:23:49.168Z,21.10
2018-04-16T09:26:21.324Z,21.40
2018-04-16T09:28:53.452Z,21.50
2018-04-16T09:31:24.859Z,21.50
2018-04-16T09:33:56.991Z,21.80
2018-04-16T09:36:28.459Z,21.70
2018-04-16T09:39:00.204Z,21.90
2018-04-16T09:41:31.589Z,22.00
2018-04-16T09:44:03.336Z,22.10
2018-04-16T09:46:35.580Z,22.20
2018-04-16T09:49:06.599Z,22.20
2018-04-16T09:51:38.391Z,22.40
2018-04-16T09:54:10.709Z,22.70
2018-04-16T09:56:42.230Z,22.70
2018-04-16T09:59:14.440Z,22.80
2018-04-16T10:01:53.514Z,22.80
2018-04-16T10:04:25.194Z,22.80
2018-04-16T10:06:56.551Z,22.90
2018-04-16T10:09:28.211Z,23.00
2018-04-16T10:12:00.349Z,22.90
2018-04-16T10:14:31.867Z,22.90
2018-04-16T10:17:03.412Z,22.90
2018-04-16T10:19:34.822Z,22.80
2018-04-16T10:22:06.359Z,22.70
2018-04-16T10:24:37.918Z,22.60
2018-04-16T10:27:09.238Z,22.60
2018-04-16T10:29:40.767Z,22.70
2018-04-16T10:32:13.021Z,22.70
2018-04-16T10:34:44.193Z,22.70
2018-04-16T10:37:15.601Z,22.70
2018-04-16T10:39:46.976Z,22.70
2018-04-16T10:42:18.618Z,22.80
2018-04-16T10:44:50.691Z,22.70
2018-04-16T10:47:23.600Z,22.80
2018-04-16T10:49:57.087Z,22.80
2018-04-16T10:52:28.493Z,23.00
2018-04-16T10:54:59.826Z,23.30
2018-04-16T10:57:32.732Z,24.10
2018-04-16T11:00:03.735Z,24.10
2018-04-16T11:02:35.534Z,24.40
2018-04-16T11:05:06.938Z,24.70
2018-04-16T11:07:40.176Z,25.00
2018-04-16T11:10:14.723Z,25.30
2018-04-16T11:12:50.101Z,25.70
2018-04-16T11:15:24.669Z,26.20
2018-04-16T11:18:00.491Z,26.20
2018-04-16T11:20:37.005Z,26.40
2018-04-16T11:23:09.378Z,26.40
2018-04-16T11:25:40.629Z,26.60
2018-04-16T11:28:12.371Z,26.90
2018-04-16T11:30:44.617Z,27.30
2018-04-16T11:33:16.218Z,27.60
2018-04-16T11:35:48.289Z,28.00
2018-04-16T11:38:20.547Z,28.90
2018-04-16T11:40:51.945Z,28.90
2018-04-16T11:43:24.058Z,29.10
2018-04-16T11:45:56.611Z,29.10
2018-04-16T11:48:27.993Z,28.90
2018-04-16T11:50:59.355Z,28.60
2018-04-16T11:53:30.823Z,28.30
2018-04-16T11:56:02.752Z,28.30
2018-04-16T11:58:34.174Z,28.30
2018-04-16T12:01:05.677Z,28.20
2018-04-16T12:03:37.061Z,28.10
2018-04-16T12:06:09.963Z,27.90
2018-04-16T12:08:41.324Z,27.80
2018-04-16T12:11:12.738Z,27.90
2018-04-16T12:13:44.255Z,28.10
2018-04-16T12:16:15.653Z,28.50
2018-04-16T12:18:46.955Z,28.80
2018-04-16T12:21:18.347Z,29.10
2018-04-16T12:23:51.164Z,29.90
2018-04-16T12:26:22.910Z,29.80
2018-04-16T12:28:54.328Z,30.30
2018-04-16T12:31:26.800Z,30.80
2018-04-16T12:33:59.523Z,31.70
2018-04-16T12:36:31.038Z,31.60
2018-04-16T12:39:03.367Z,31.80
2018-04-16T12:41:35.816Z,31.70
2018-04-16T12:44:07.438Z,31.30
2018-04-16T12:46:39.103Z,30.90
2018-04-16T12:49:10.640Z,30.40
2018-04-16T12:51:42.917Z,30.00
2018-04-16T12:54:14.324Z,29.90
2018-04-16T12:56:45.903Z,29.90
2018-04-16T12:59:17.259Z,29.70
2018-04-16T13:01:49.059Z,29.30
2018-04-16T13:04:20.866Z,29.00
2018-04-16T13:06:52.530Z,28.40
2018-04-16T13:09:23.977Z,28.00
2018-04-16T13:11:55.454Z,27.50
2018-04-16T13:14:26.885Z,27.10
2018-04-16T13:16:59.537Z,26.80
2018-04-16T13:19:30.797Z,26.70
2018-04-16T13:24:38.930Z,26.50
2018-04-16T13:27:10.599Z,26.50
2018-04-16T13:29:42.067Z,26.70
2018-04-16T13:32:13.438Z,26.80
2018-04-16T13:34:44.840Z,27.00
2018-04-16T13:37:18.007Z,27.10
2018-04-16T13:39:49.351Z,27.10
2018-04-16T13:42:21.405Z,27.10
2018-04-16T13:44:52.780Z,27.10
2018-04-16T13:47:24.140Z,27.00
2018-04-16T13:49:55.499Z,27.00
2018-04-16T13:52:27.964Z,26.90
2018-04-16T13:54:59.601Z,26.70
2018-04-16T13:57:31.778Z,26.60
2018-04-16T14:00:03.542Z,26.40
2018-04-16T14:02:34.978Z,26.30
2018-04-16T14:05:06.377Z,26.00
2018-04-16T14:07:37.813Z,25.90
2018-04-16T14:10:10.139Z,25.60
2018-04-16T14:12:41.700Z,25.50
2018-04-16T14:15:13.979Z,25.30
2018-04-16T14:17:45.312Z,25.20
2018-04-16T14:20:16.938Z,25.00
2018-04-16T14:22:48.287Z,24.90
2018-04-16T14:25:20.306Z,24.80
2018-04-16T14:27:51.650Z,24.80
2018-04-16T14:30:23.711Z,24.70
2018-04-16T14:32:55.221Z,24.70
2018-04-16T14:35:27.588Z,24.70
2018-04-16T14:37:58.918Z,24.70
2018-04-16T14:40:30.323Z,24.70
2018-04-16T14:43:02.824Z,24.80
2018-04-16T14:45:34.500Z,24.80
2018-04-16T14:48:06.144Z,24.90
2018-04-16T14:50:37.512Z,24.90
2018-04-16T14:53:08.987Z,25.00
2018-04-16T14:55:41.105Z,25.20
2018-04-16T14:58:12.778Z,25.20
2018-04-16T15:00:44.173Z,25.30
2018-04-16T15:03:16.311Z,25.30
2018-04-16T15:05:48.687Z,25.30
2018-04-16T15:08:20.942Z,25.30
2018-04-16T15:10:52.346Z,25.30
2018-04-16T15:13:23.805Z,25.20
2018-04-16T15:15:55.191Z,25.10
2018-04-16T15:18:26.267Z,25.00
2018-04-16T15:20:57.715Z,24.80
2018-04-16T15:23:29.101Z,24.70
2018-04-16T15:26:00.826Z,24.60
2018-04-16T15:28:32.419Z,24.50
2018-04-16T15:31:04.307Z,24.40
2018-04-16T15:33:36.255Z,24.30
2018-04-16T15:36:07.958Z,24.20
2018-04-16T15:38:39.331Z,24.20
2018-04-16T15:41:10.709Z,24.10
2018-04-16T15:43:42.166Z,24.00
2018-04-16T15:46:13.578Z,23.90
2018-04-16T15:48:45.264Z,23.90
2018-04-16T15:51:16.598Z,23.80
2018-04-16T15:53:48.011Z,23.80
2018-04-16T15:56:20.145Z,23.80
2018-04-16T15:58:51.459Z,23.70
2018-04-16T16:01:22.834Z,23.70
2018-04-16T16:03:53.991Z,23.60
2018-04-16T16:06:25.367Z,23.50
2018-04-16T16:08:56.935Z,23.50
2018-04-16T16:11:29.140Z,23.50
2018-04-16T16:14:00.598Z,23.40
2018-04-16T16:16:31.943Z,23.40
2018-04-16T16:19:04.350Z,23.40
2018-04-16T16:21:35.704Z,23.30
2018-04-16T16:24:06.740Z,23.30
2018-04-16T16:26:38.979Z,23.20
2018-04-16T16:29:10.321Z,23.20
2018-04-16T16:31:41.702Z,23.20
2018-04-16T16:34:13.104Z,23.20
2018-04-16T16:36:44.549Z,23.10
2018-04-16T16:39:15.970Z,23.10
2018-04-16T16:41:47.448Z,23.40
2018-04-16T16:44:18.918Z,23.00
2018-04-16T16:46:51.209Z,22.90
2018-04-16T16:49:22.657Z,22.90
2018-04-16T16:51:54.043Z,22.80
2018-04-16T16:54:25.457Z,22.70
2018-04-16T16:56:57.097Z,22.60
2018-04-16T16:59:28.997Z,22.60
2018-04-16T17:02:00.192Z,22.50
2018-04-16T17:04:32.378Z,22.40
2018-04-16T17:07:03.899Z,22.40
2018-04-16T17:09:35.587Z,22.40
2018-04-16T17:12:07.000Z,22.30
2018-04-16T17:14:38.399Z,22.30
2018-04-16T17:17:09.811Z,22.20
2018-04-16T17:19:44.963Z,22.20
2018-04-16T17:22:18.276Z,22.20
2018-04-16T17:24:51.659Z,22.20
2018-04-16T17:27:24.444Z,22.20
2018-04-16T17:29:57.441Z,22.10
2018-04-16T17:32:30.631Z,22.10
2018-04-16T17:35:02.100Z,22.10
2018-04-16T17:37:34.231Z,22.10
2018-04-16T17:40:06.037Z,22.00
2018-04-16T17:42:38.207Z,22.00
2018-04-16T17:45:09.580Z,21.90
2018-04-16T17:47:41.119Z,21.90
2018-04-16T17:50:12.667Z,21.90
2018-04-16T17:52:44.029Z,21.80
2018-04-16T17:55:15.427Z,21.70
2018-04-16T17:57:46.794Z,21.60
2018-04-16T18:00:18.250Z,21.50
2018-04-16T18:02:50.640Z,21.30
2018-04-16T18:05:22.803Z,21.20
2018-04-16T18:07:58.050Z,21.10
2018-04-16T18:10:31.965Z,21.10
2018-04-16T18:13:05.255Z,21.00
2018-04-16T18:15:36.732Z,20.90
2018-04-16T18:18:08.212Z,20.80
2018-04-16T18:20:39.544Z,20.70
2018-04-16T18:23:13.270Z,20.60
2018-04-16T18:25:45.867Z,20.50
2018-04-16T18:28:17.247Z,20.40
2018-04-16T18:30:49.620Z,20.30
2018-04-16T18:33:21.029Z,20.20
2018-04-16T18:35:52.362Z,20.10
2018-04-16T18:38:27.794Z,20.00
2018-04-16T18:40:59.160Z,20.00
2018-04-16T18:43:32.779Z,19.90
2018-04-16T18:46:04.291Z,19.80
2018-04-16T18:48:35.687Z,19.80
2018-04-16T18:51:07.823Z,19.60
2018-04-16T18:53:39.182Z,19.60
2018-04-16T18:56:12.038Z,19.40
2018-04-16T18:58:43.465Z,19.50
2018-04-16T19:01:15.629Z,19.40
2018-04-16T19:03:46.987Z,19.30
2018-04-16T19:06:18.042Z,19.30
2018-04-16T19:08:49.460Z,19.20
2018-04-16T19:11:21.563Z,19.10
2018-04-16T19:13:52.982Z,19.10
2018-04-16T19:16:25.108Z,19.00
2018-04-16T19:18:56.501Z,19.00
2018-04-16T19:21:33.150Z,19.00
2018-04-16T19:24:05.303Z,18.80
2018-04-16T19:26:36.453Z,18.80
2018-04-16T19:29:07.811Z,18.70
2018-04-16T19:31:39.410Z,18.70
2018-04-16T19:34:16.829Z,18.60
2018-04-16T19:36:49.077Z,18.50
2018-04-16T19:39:20.450Z,18.50
2018-04-16T19:41:57.115Z,18.50
2018-04-16T19:44:28.471Z,18.40
2018-04-16T19:46:59.827Z,18.40
2018-04-16T19:49:36.984Z,18.40
2018-04-16T19:52:08.396Z,18.30
2018-04-16T19:54:43.874Z,18.30
2018-04-16T19:57:20.602Z,18.30
2018-04-16T19:59:53.529Z,18.10
2018-04-16T20:02:30.928Z,18.10
2018-04-16T20:05:03.075Z,18.10
2018-04-16T20:07:36.136Z,18.00
2018-04-16T20:10:07.591Z,18.00
2018-04-16T20:12:39.097Z,18.00
2018-04-16T20:15:10.478Z,17.90
2018-04-16T20:17:41.899Z,17.90
2018-04-16T20:20:13.152Z,17.90
2018-04-16T20:22:44.712Z,17.80
2018-04-16T20:25:16.303Z,17.80
2018-04-16T20:27:49.253Z,17.70
2018-04-16T20:30:20.603Z,17.70
2018-04-16T20:32:52.110Z,17.70
2018-04-16T20:35:24.041Z,17.60
2018-04-16T20:37:55.428Z,17.60
2018-04-16T20:40:27.125Z,17.60
2018-04-16T20:42:58.680Z,17.50
2018-04-16T20:45:30.105Z,17.50
2018-04-16T20:48:02.260Z,17.40
2018-04-16T20:50:33.840Z,17.40
2018-04-16T20:53:05.221Z,17.40
2018-04-16T20:55:36.606Z,17.30
2018-04-16T20:58:09.712Z,17.20
2018-04-16T21:00:41.177Z,17.20
2018-04-16T21:03:13.348Z,17.20
2018-04-16T21:05:45.567Z,17.10
2018-04-16T21:08:16.945Z,17.10
2018-04-16T21:10:49.098Z,17.00
2018-04-16T21:13:20.446Z,17.00
2018-04-16T21:15:52.768Z,17.00
2018-04-16T21:18:24.208Z,16.90
2018-04-16T21:20:56.426Z,16.90
2018-04-16T21:23:27.830Z,16.90
2018-04-16T21:25:59.241Z,16.80
2018-04-16T21:28:32.137Z,16.70
2018-04-16T21:31:03.677Z,16.70
2018-04-16T21:33:35.081Z,16.70
2018-04-16T21:36:06.465Z,16.70
2018-04-16T21:38:37.918Z,16.60
2018-04-16T21:41:09.301Z,16.60
2018-04-16T21:43:40.641Z,16.50
2018-04-16T21:46:13.278Z,16.40
2018-04-16T21:48:44.677Z,16.40
2018-04-16T21:51:16.027Z,16.10
2018-04-16T21:53:47.526Z,16.40
2018-04-16T21:56:18.865Z,16.30
2018-04-16T21:58:50.269Z,16.20
2018-04-16T22:01:22.421Z,16.10
2018-04-16T22:03:53.765Z,16.10
2018-04-16T22:06:25.189Z,16.00
2018-04-16T22:08:56.565Z,16.00
2018-04-16T22:11:28.001Z,15.90
2018-04-16T22:13:59.375Z,15.90
2018-04-16T22:16:30.803Z,15.80
2018-04-16T22:19:02.227Z,15.80
2018-04-16T22:21:34.382Z,15.70
2018-04-16T22:24:05.736Z,15.60
2018-04-16T22:26:37.819Z,15.60
2018-04-16T22:29:09.162Z,15.60
2018-04-16T22:31:41.313Z,15.50
2018-04-16T22:34:12.457Z,15.50
2018-04-16T22:36:43.814Z,15.50
2018-04-16T22:39:15.953Z,15.40
2018-04-16T22:41:47.305Z,15.30
2018-04-16T22:44:18.764Z,15.30
2018-04-16T22:46:49.777Z,15.30
2018-04-16T22:49:21.145Z,15.30
2018-04-16T22:51:52.278Z,15.20
2018-04-16T22:54:23.625Z,15.10
2018-04-16T22:56:54.997Z,15.10
2018-04-16T22:59:26.676Z,15.00
2018-04-16T23:01:58.830Z,15.00
2018-04-16T23:04:30.935Z,14.90
2018-04-16T23:07:02.432Z,14.90
2018-04-16T23:09:33.769Z,14.90
2018-04-16T23:12:06.695Z,14.80
2018-04-16T23:14:38.043Z,14.80
2018-04-16T23:17:09.509Z,14.70
2018-04-16T23:19:41.639Z,14.70
2018-04-16T23:22:15.230Z,14.60
2018-04-16T23:24:46.657Z,14.70
2018-04-16T23:27:18.471Z,14.60
2018-04-16T23:29:50.725Z,14.50
2018-04-16T23:32:22.090Z,14.50
2018-04-16T23:34:53.783Z,14.50
2018-04-16T23:37:26.118Z,14.50
2018-04-16T23:39:58.246Z,14.40
2018-04-16T23:42:29.637Z,14.40
2018-04-16T23:45:01.049Z,14.40
2018-04-16T23:47:32.438Z,14.30
2018-04-16T23:50:03.517Z,14.30
2018-04-16T23:52:35.650Z,14.20
2018-04-16T23:55:08.566Z,14.10
2018-04-16T23:57:40.728Z,14.20
